Hrossey — VSTY6 — position and weather

sailwx.info

Track history (hours):
 
Tides and Currents Weather Stations Pressure Air Temp Water Temp Dewpoint Dewpoint Depression Visibility Wind Speed Wind Dir Waves Ship Positions

Hrossey

Operator: NorthLink Orkey & Shetland Ferries Ltd

Last reported at 2018-Jul-22 06:59 UTC. Time now 2018-Jul-22 06:59 UTC.
Position N 57°09' W 002°05'.

Length 125 m; draft 5.4 m.

Type: Ship. MMSI: 235448000.

Date/timePositionNaut miles runAvg speedWind from/ knotsBaromVisibWave heightAir tempDewpointWater temp
2018-Jul-22 06:59N 57°09' W 002°05'0 0.0
2018-Jul-22 06:29N 57°09' W 002°05'0 0.0
2018-Jul-22 06:00N 57°09' W 002°05'1 1.2
2018-Jul-22 05:30N 57°08' W 002°04'713.7
2018-Jul-22 04:59N 57°14' W 001°56'1713.8
2018-Jul-22 03:44N 57°28' W 001°38'312.5
2018-Jul-22 03:30N 57°31' W 001°37'6 0.2
2018-Jul-20 20:14N 57°37' W 001°37'416.5
2018-Jul-20 20:00N 57°33' W 001°37'815.6
2018-Jul-20 19:30N 57°25' W 001°40'816.6
2018-Jul-20 19:00N 57°19' W 001°50'816.8
2018-Jul-20 18:31N 57°12' W 001°58'5 9.8
2018-Jul-20 18:00N 57°09' W 002°05'0 0.4
2018-Jul-20 17:28N 57°09' W 002°05'0 0.0
2018-Jul-20 16:58N 57°09' W 002°05'0 0.0
2018-Jul-20 16:26N 57°09' W 002°05'0 0.0
2018-Jul-20 15:58N 57°09' W 002°05'0 0.0
2018-Jul-20 15:28N 57°09' W 002°05'0 0.0
2018-Jul-20 14:56N 57°09' W 002°05'0 0.0
2018-Jul-20 14:28N 57°09' W 002°05'0 0.0
2018-Jul-20 13:58N 57°09' W 002°05'0 0.0
2018-Jul-20 13:28N 57°09' W 002°05'0 0.0
2018-Jul-20 12:58N 57°09' W 002°05'0 0.0
2018-Jul-20 12:28N 57°09' W 002°05'0 0.0
2018-Jul-20 11:58N 57°09' W 002°05'0 0.0
2018-Jul-20 11:28N 57°09' W 002°05'0 0.0
2018-Jul-20 10:58N 57°09' W 002°05'0 0.0
2018-Jul-20 10:28N 57°09' W 002°05'0 0.0
2018-Jul-20 09:58N 57°09' W 002°05'0 0.0
2018-Jul-20 09:28N 57°09' W 002°05'0 0.0
2018-Jul-20 08:59N 57°09' W 002°05'0 0.0
2018-Jul-20 08:29N 57°09' W 002°05'0 0.0
2018-Jul-20 07:59N 57°09' W 002°05'0 0.0
2018-Jul-20 07:29N 57°09' W 002°05'0 0.0
2018-Jul-20 06:59N 57°09' W 002°05'0 0.0
2018-Jul-20 06:29N 57°09' W 002°05'0 0.0
2018-Jul-20 05:59N 57°09' W 002°05'1 1.3
2018-Jul-20 05:31N 57°08' W 002°04'612.8
2018-Jul-20 05:00N 57°13' W 001°56'916.6
2018-Jul-20 04:29N 57°20' W 001°47'1017.0
2018-Jul-20 03:55N 57°29' W 001°39'614.7
2018-Jul-20 03:30N 57°35' W 001°38'2 0.1
2018-Jul-18 19:59N 57°37' W 001°37'817.5
2018-Jul-18 19:30N 57°29' W 001°37'1217.4
2018-Jul-18 18:51N 57°19' W 001°49'617.3
2018-Jul-18 18:30N 57°14' W 001°55'714.5
2018-Jul-18 18:00N 57°09' W 002°04'1 1.6
2018-Jul-18 17:29N 57°09' W 002°05'0 0.0
2018-Jul-18 17:00N 57°09' W 002°05'0 0.0
2018-Jul-18 16:30N 57°09' W 002°05'0 0.0
2018-Jul-18 16:00N 57°09' W 002°05'0 0.0
2018-Jul-18 15:30N 57°09' W 002°05'0 0.0
2018-Jul-18 15:00N 57°09' W 002°05'0 0.0
2018-Jul-18 14:30N 57°09' W 002°05'0 0.0
2018-Jul-18 13:30N 57°09' W 002°05'0 0.0
2018-Jul-18 13:00N 57°09' W 002°05'0 0.0
2018-Jul-18 12:30N 57°09' W 002°05'0 0.0
2018-Jul-18 12:00N 57°09' W 002°05'0 0.0
2018-Jul-18 11:30N 57°09' W 002°05'0 0.0
2018-Jul-18 10:30N 57°09' W 002°05'0 0.0
2018-Jul-18 10:00N 57°09' W 002°05'0 0.0
2018-Jul-18 09:28N 57°09' W 002°05'0 0.0
2018-Jul-18 09:00N 57°09' W 002°05'0 0.0
2018-Jul-18 08:30N 57°09' W 002°05'0 0.0
2018-Jul-18 08:00N 57°09' W 002°05'0 0.0
2018-Jul-18 07:30N 57°09' W 002°05'0 0.0
2018-Jul-18 07:00N 57°09' W 002°05'0 0.0
2018-Jul-18 06:28N 57°09' W 002°05'0 0.0
2018-Jul-18 05:58N 57°09' W 002°05'1 1.2
2018-Jul-18 05:31N 57°09' W 002°04'612.3
2018-Jul-18 05:01N 57°12' W 001°55'2113.8
2018-Jul-18 03:31N 57°30' W 001°37'015.0
2018-Jul-18 03:30N 57°30' W 001°37'4 0.1
2018-Jul-16 19:46N 57°33' W 001°31'518.8
2018-Jul-16 19:30N 57°29' W 001°35'918.6
2018-Jul-16 19:00N 57°22' W 001°45'918.0
2018-Jul-16 18:31N 57°14' W 001°55'815.1
2018-Jul-16 18:00N 57°09' W 002°04'1 1.4
2018-Jul-16 17:28N 57°09' W 002°05'0 0.0
2018-Jul-16 16:58N 57°09' W 002°05'0 0.0
2018-Jul-16 16:28N 57°09' W 002°05'0 0.0
2018-Jul-16 15:58N 57°09' W 002°05'0 0.0
2018-Jul-16 15:28N 57°09' W 002°05'0 0.0
2018-Jul-16 14:58N 57°09' W 002°05'0 0.0
2018-Jul-16 14:28N 57°09' W 002°05'0 0.0
2018-Jul-16 13:58N 57°09' W 002°05'0 0.0
2018-Jul-16 13:28N 57°09' W 002°05'0 0.0
2018-Jul-16 12:58N 57°09' W 002°05'0 0.0
2018-Jul-16 12:28N 57°09' W 002°05'0 0.0
2018-Jul-16 11:58N 57°09' W 002°05'0 0.0
2018-Jul-16 11:28N 57°09' W 002°05'0 0.0
2018-Jul-16 10:58N 57°09' W 002°05'0 0.0
2018-Jul-16 10:28N 57°09' W 002°05'0 0.0
2018-Jul-16 09:58N 57°09' W 002°05'0 0.0
2018-Jul-16 09:28N 57°09' W 002°05'0 0.0
2018-Jul-16 08:58N 57°09' W 002°05'0 0.0
2018-Jul-16 08:28N 57°09' W 002°05'0 0.0
2018-Jul-16 07:58N 57°09' W 002°05'0 0.0
2018-Jul-16 07:29N 57°09' W 002°05'0 0.0
2018-Jul-16 06:59N 57°09' W 002°05'0 0.0
2018-Jul-16 06:29N 57°09' W 002°05'0 0.0
2018-Jul-16 05:59N 57°09' W 002°05'0 1.0
2018-Jul-16 05:30N 57°09' W 002°05'612.3
2018-Jul-16 05:00N 57°13' W 001°56'2013.6
2018-Jul-16 03:31N 57°30' W 001°38'014.9
2018-Jul-16 03:30N 57°30' W 001°38'97 3.6
2018-Jul-15 00:24N 59°04' W 002°28'411.1
2018-Jul-15 00:00N 59°01' W 002°33'611.9
2018-Jul-14 23:30N 59°00' W 002°45'713.7
2018-Jul-14 23:00N 59°00' W 002°58'0 0.5
2018-Jul-14 22:30N 58°60' W 002°58'0 0.0
2018-Jul-14 22:00N 58°60' W 002°58'4 8.1
2018-Jul-14 21:30N 59°01' W 002°51'919.0
2018-Jul-14 21:00N 58°55' W 002°36'8323.7
2018-Jul-14 17:29N 57°36' W 001°42'1223.2
2018-Jul-14 16:59N 57°25' W 001°40'1123.7
2018-Jul-14 16:30N 57°15' W 001°52'1019.2
2018-Jul-14 16:00N 57°08' W 002°04'1 1.3
2018-Jul-14 15:30N 57°09' W 002°05'0 0.0
2018-Jul-14 14:59N 57°09' W 002°05'0 0.0
2018-Jul-14 14:30N 57°09' W 002°05'0 0.0
2018-Jul-14 13:30N 57°09' W 002°05'0 0.0
2018-Jul-14 13:00N 57°09' W 002°05'0 0.0
2018-Jul-14 12:29N 57°09' W 002°05'0 0.0
2018-Jul-14 11:59N 57°09' W 002°05'0 0.0
2018-Jul-14 11:30N 57°09' W 002°05'0 0.0
2018-Jul-14 10:59N 57°09' W 002°05'0 0.0
2018-Jul-14 10:30N 57°09' W 002°05'0 0.0
2018-Jul-14 10:00N 57°09' W 002°05'0 0.0
2018-Jul-14 09:29N 57°09' W 002°05'0 0.0
2018-Jul-14 09:00N 57°09' W 002°05'0 0.0
2018-Jul-14 08:30N 57°09' W 002°05'0 0.0
2018-Jul-14 08:00N 57°09' W 002°05'0 0.0
2018-Jul-14 07:30N 57°09' W 002°05'0 0.0
2018-Jul-14 07:00N 57°09' W 002°05'0 0.0
2018-Jul-14 06:29N 57°09' W 002°05'0 0.0
2018-Jul-14 06:00N 57°09' W 002°05'1 1.2
2018-Jul-14 05:30N 57°08' W 002°04'612.6
2018-Jul-14 05:00N 57°13' W 001°56'916.8
2018-Jul-14 04:29N 57°19' W 001°45'816.2
2018-Jul-14 04:00N 57°27' W 001°40'9220.8
2018-Jul-13 23:36N 58°54' W 002°37'224.6
2018-Jul-13 23:30N 58°56' W 002°38'1121.1
2018-Jul-13 23:00N 59°01' W 002°55'2 4.1
2018-Jul-13 22:29N 58°60' W 002°58'0 0.0
2018-Jul-13 21:55N 58°60' W 002°58'0 0.4
2018-Jul-13 21:30N 58°60' W 002°58'815.4
2018-Jul-13 21:01N 59°00' W 002°43'10 0.5
2018-Jul-13 00:41N 59°05' W 002°26'316.4
2018-Jul-13 00:30N 59°02' W 002°29'815.0
2018-Jul-13 00:00N 59°00' W 002°43'715.0
2018-Jul-12 23:30N 59°00' W 002°58'0 0.7
2018-Jul-12 22:56N 58°60' W 002°58'0 0.0
2018-Jul-12 22:30N 58°60' W 002°58'0 0.0
2018-Jul-12 22:01N 58°60' W 002°58'612.4
2018-Jul-12 21:30N 59°00' W 002°46'9122.4
2018-Jul-12 17:27N 57°36' W 001°41'1124.3
2018-Jul-12 17:01N 57°25' W 001°43'1224.5
2018-Jul-12 16:31N 57°15' W 001°55'815.9
2018-Jul-12 16:00N 57°09' W 002°05'0 0.8
2018-Jul-12 15:30N 57°09' W 002°05'0 0.0
2018-Jul-12 15:00N 57°09' W 002°05'0 0.0
2018-Jul-12 14:30N 57°09' W 002°05'0 0.0
2018-Jul-12 14:00N 57°09' W 002°05'0 0.0
2018-Jul-12 13:30N 57°09' W 002°05'0 0.0
2018-Jul-12 13:00N 57°09' W 002°05'0 0.0
2018-Jul-12 12:30N 57°09' W 002°05'0 0.0
2018-Jul-12 12:00N 57°09' W 002°05'0 0.0
2018-Jul-12 11:28N 57°09' W 002°05'0 0.0
2018-Jul-12 11:00N 57°09' W 002°05'0 0.0
2018-Jul-12 10:30N 57°09' W 002°05'0 0.0
2018-Jul-12 10:00N 57°09' W 002°05'0 0.0
2018-Jul-12 09:30N 57°09' W 002°05'0 0.0
2018-Jul-12 09:00N 57°09' W 002°05'0 0.0
2018-Jul-12 08:30N 57°09' W 002°05'0 0.0
2018-Jul-12 08:00N 57°09' W 002°05'0 0.0
2018-Jul-12 07:30N 57°09' W 002°05'0 0.0
2018-Jul-12 07:00N 57°09' W 002°05'  
Track history (hours):
 
Tides and Currents Weather Stations Pressure Air Temp Water Temp Dewpoint Dewpoint Depression Visibility Wind Speed Wind Dir Waves Ship Positions

Hrossey

Operator: NorthLink Orkey & Shetland Ferries Ltd

Last reported at 2018-Jul-22 06:59 UTC. Time now 2018-Jul-22 06:59 UTC.
Position N 57°09' W 002°05'.

Length 125 m; draft 5.4 m.

Type: Ship. MMSI: 235448000.

Date/timePositionNaut miles runAvg speedWind from/ knotsBaromVisibWave heightAir tempDewpointWater temp
2018-Jul-22 06:59N 57°09' W 002°05'0 0.0
2018-Jul-22 06:29N 57°09' W 002°05'0 0.0
2018-Jul-22 06:00N 57°09' W 002°05'1 1.2
2018-Jul-22 05:30N 57°08' W 002°04'713.7
2018-Jul-22 04:59N 57°14' W 001°56'1713.8
2018-Jul-22 03:44N 57°28' W 001°38'312.5
2018-Jul-22 03:30N 57°31' W 001°37'6 0.2
2018-Jul-20 20:14N 57°37' W 001°37'416.5
2018-Jul-20 20:00N 57°33' W 001°37'815.6
2018-Jul-20 19:30N 57°25' W 001°40'816.6
2018-Jul-20 19:00N 57°19' W 001°50'816.8
2018-Jul-20 18:31N 57°12' W 001°58'5 9.8
2018-Jul-20 18:00N 57°09' W 002°05'0 0.4
2018-Jul-20 17:28N 57°09' W 002°05'0 0.0
2018-Jul-20 16:58N 57°09' W 002°05'0 0.0
2018-Jul-20 16:26N 57°09' W 002°05'0 0.0
2018-Jul-20 15:58N 57°09' W 002°05'0 0.0
2018-Jul-20 15:28N 57°09' W 002°05'0 0.0
2018-Jul-20 14:56N 57°09' W 002°05'0 0.0
2018-Jul-20 14:28N 57°09' W 002°05'0 0.0
2018-Jul-20 13:58N 57°09' W 002°05'0 0.0
2018-Jul-20 13:28N 57°09' W 002°05'0 0.0
2018-Jul-20 12:58N 57°09' W 002°05'0 0.0
2018-Jul-20 12:28N 57°09' W 002°05'0 0.0
2018-Jul-20 11:58N 57°09' W 002°05'0 0.0
2018-Jul-20 11:28N 57°09' W 002°05'0 0.0
2018-Jul-20 10:58N 57°09' W 002°05'0 0.0
2018-Jul-20 10:28N 57°09' W 002°05'0 0.0
2018-Jul-20 09:58N 57°09' W 002°05'0 0.0
2018-Jul-20 09:28N 57°09' W 002°05'0 0.0
2018-Jul-20 08:59N 57°09' W 002°05'0 0.0
2018-Jul-20 08:29N 57°09' W 002°05'0 0.0
2018-Jul-20 07:59N 57°09' W 002°05'0 0.0
2018-Jul-20 07:29N 57°09' W 002°05'0 0.0
2018-Jul-20 06:59N 57°09' W 002°05'0 0.0
2018-Jul-20 06:29N 57°09' W 002°05'0 0.0
2018-Jul-20 05:59N 57°09' W 002°05'1 1.3
2018-Jul-20 05:31N 57°08' W 002°04'612.8
2018-Jul-20 05:00N 57°13' W 001°56'916.6
2018-Jul-20 04:29N 57°20' W 001°47'1017.0
2018-Jul-20 03:55N 57°29' W 001°39'614.7
2018-Jul-20 03:30N 57°35' W 001°38'2 0.1
2018-Jul-18 19:59N 57°37' W 001°37'817.5
2018-Jul-18 19:30N 57°29' W 001°37'1217.4
2018-Jul-18 18:51N 57°19' W 001°49'617.3
2018-Jul-18 18:30N 57°14' W 001°55'714.5
2018-Jul-18 18:00N 57°09' W 002°04'1 1.6
2018-Jul-18 17:29N 57°09' W 002°05'0 0.0
2018-Jul-18 17:00N 57°09' W 002°05'0 0.0
2018-Jul-18 16:30N 57°09' W 002°05'0 0.0
2018-Jul-18 16:00N 57°09' W 002°05'0 0.0
2018-Jul-18 15:30N 57°09' W 002°05'0 0.0
2018-Jul-18 15:00N 57°09' W 002°05'0 0.0
2018-Jul-18 14:30N 57°09' W 002°05'0 0.0
2018-Jul-18 13:30N 57°09' W 002°05'0 0.0
2018-Jul-18 13:00N 57°09' W 002°05'0 0.0
2018-Jul-18 12:30N 57°09' W 002°05'0 0.0
2018-Jul-18 12:00N 57°09' W 002°05'0 0.0
2018-Jul-18 11:30N 57°09' W 002°05'0 0.0
2018-Jul-18 10:30N 57°09' W 002°05'0 0.0
2018-Jul-18 10:00N 57°09' W 002°05'0 0.0
2018-Jul-18 09:28N 57°09' W 002°05'0 0.0
2018-Jul-18 09:00N 57°09' W 002°05'0 0.0
2018-Jul-18 08:30N 57°09' W 002°05'0 0.0
2018-Jul-18 08:00N 57°09' W 002°05'0 0.0
2018-Jul-18 07:30N 57°09' W 002°05'0 0.0
2018-Jul-18 07:00N 57°09' W 002°05'0 0.0
2018-Jul-18 06:28N 57°09' W 002°05'0 0.0
2018-Jul-18 05:58N 57°09' W 002°05'1 1.2
2018-Jul-18 05:31N 57°09' W 002°04'612.3
2018-Jul-18 05:01N 57°12' W 001°55'2113.8
2018-Jul-18 03:31N 57°30' W 001°37'015.0
2018-Jul-18 03:30N 57°30' W 001°37'4 0.1
2018-Jul-16 19:46N 57°33' W 001°31'518.8
2018-Jul-16 19:30N 57°29' W 001°35'918.6
2018-Jul-16 19:00N 57°22' W 001°45'918.0
2018-Jul-16 18:31N 57°14' W 001°55'815.1
2018-Jul-16 18:00N 57°09' W 002°04'1 1.4
2018-Jul-16 17:28N 57°09' W 002°05'0 0.0
2018-Jul-16 16:58N 57°09' W 002°05'0 0.0
2018-Jul-16 16:28N 57°09' W 002°05'0 0.0
2018-Jul-16 15:58N 57°09' W 002°05'0 0.0
2018-Jul-16 15:28N 57°09' W 002°05'0 0.0
2018-Jul-16 14:58N 57°09' W 002°05'0 0.0
2018-Jul-16 14:28N 57°09' W 002°05'0 0.0
2018-Jul-16 13:58N 57°09' W 002°05'0 0.0
2018-Jul-16 13:28N 57°09' W 002°05'0 0.0
2018-Jul-16 12:58N 57°09' W 002°05'0 0.0
2018-Jul-16 12:28N 57°09' W 002°05'0 0.0
2018-Jul-16 11:58N 57°09' W 002°05'0 0.0
2018-Jul-16 11:28N 57°09' W 002°05'0 0.0
2018-Jul-16 10:58N 57°09' W 002°05'0 0.0
2018-Jul-16 10:28N 57°09' W 002°05'0 0.0
2018-Jul-16 09:58N 57°09' W 002°05'0 0.0
2018-Jul-16 09:28N 57°09' W 002°05'0 0.0
2018-Jul-16 08:58N 57°09' W 002°05'0 0.0
2018-Jul-16 08:28N 57°09' W 002°05'0 0.0
2018-Jul-16 07:58N 57°09' W 002°05'0 0.0
2018-Jul-16 07:29N 57°09' W 002°05'0 0.0
2018-Jul-16 06:59N 57°09' W 002°05'0 0.0
2018-Jul-16 06:29N 57°09' W 002°05'0 0.0
2018-Jul-16 05:59N 57°09' W 002°05'0 1.0
2018-Jul-16 05:30N 57°09' W 002°05'612.3
2018-Jul-16 05:00N 57°13' W 001°56'2013.6
2018-Jul-16 03:31N 57°30' W 001°38'014.9
2018-Jul-16 03:30N 57°30' W 001°38'97 3.6
2018-Jul-15 00:24N 59°04' W 002°28'411.1
2018-Jul-15 00:00N 59°01' W 002°33'611.9
2018-Jul-14 23:30N 59°00' W 002°45'713.7
2018-Jul-14 23:00N 59°00' W 002°58'0 0.5
2018-Jul-14 22:30N 58°60' W 002°58'0 0.0
2018-Jul-14 22:00N 58°60' W 002°58'4 8.1
2018-Jul-14 21:30N 59°01' W 002°51'919.0
2018-Jul-14 21:00N 58°55' W 002°36'8323.7
2018-Jul-14 17:29N 57°36' W 001°42'1223.2
2018-Jul-14 16:59N 57°25' W 001°40'1123.7
2018-Jul-14 16:30N 57°15' W 001°52'1019.2
2018-Jul-14 16:00N 57°08' W 002°04'1 1.3
2018-Jul-14 15:30N 57°09' W 002°05'0 0.0
2018-Jul-14 14:59N 57°09' W 002°05'0 0.0
2018-Jul-14 14:30N 57°09' W 002°05'0 0.0
2018-Jul-14 13:30N 57°09' W 002°05'0 0.0
2018-Jul-14 13:00N 57°09' W 002°05'0 0.0
2018-Jul-14 12:29N 57°09' W 002°05'0 0.0
2018-Jul-14 11:59N 57°09' W 002°05'0 0.0
2018-Jul-14 11:30N 57°09' W 002°05'0 0.0
2018-Jul-14 10:59N 57°09' W 002°05'0 0.0
2018-Jul-14 10:30N 57°09' W 002°05'0 0.0
2018-Jul-14 10:00N 57°09' W 002°05'0 0.0
2018-Jul-14 09:29N 57°09' W 002°05'0 0.0
2018-Jul-14 09:00N 57°09' W 002°05'0 0.0
2018-Jul-14 08:30N 57°09' W 002°05'0 0.0
2018-Jul-14 08:00N 57°09' W 002°05'0 0.0
2018-Jul-14 07:30N 57°09' W 002°05'0 0.0
2018-Jul-14 07:00N 57°09' W 002°05'0 0.0
2018-Jul-14 06:29N 57°09' W 002°05'0 0.0
2018-Jul-14 06:00N 57°09' W 002°05'1 1.2
2018-Jul-14 05:30N 57°08' W 002°04'612.6
2018-Jul-14 05:00N 57°13' W 001°56'916.8
2018-Jul-14 04:29N 57°19' W 001°45'816.2
2018-Jul-14 04:00N 57°27' W 001°40'9220.8
2018-Jul-13 23:36N 58°54' W 002°37'224.6
2018-Jul-13 23:30N 58°56' W 002°38'1121.1
2018-Jul-13 23:00N 59°01' W 002°55'2 4.1
2018-Jul-13 22:29N 58°60' W 002°58'0 0.0
2018-Jul-13 21:55N 58°60' W 002°58'0 0.4
2018-Jul-13 21:30N 58°60' W 002°58'815.4
2018-Jul-13 21:01N 59°00' W 002°43'10 0.5
2018-Jul-13 00:41N 59°05' W 002°26'316.4
2018-Jul-13 00:30N 59°02' W 002°29'815.0
2018-Jul-13 00:00N 59°00' W 002°43'715.0
2018-Jul-12 23:30N 59°00' W 002°58'0 0.7
2018-Jul-12 22:56N 58°60' W 002°58'0 0.0
2018-Jul-12 22:30N 58°60' W 002°58'0 0.0
2018-Jul-12 22:01N 58°60' W 002°58'612.4
2018-Jul-12 21:30N 59°00' W 002°46'9122.4
2018-Jul-12 17:27N 57°36' W 001°41'1124.3
2018-Jul-12 17:01N 57°25' W 001°43'1224.5
2018-Jul-12 16:31N 57°15' W 001°55'815.9
2018-Jul-12 16:00N 57°09' W 002°05'0 0.8
2018-Jul-12 15:30N 57°09' W 002°05'0 0.0
2018-Jul-12 15:00N 57°09' W 002°05'0 0.0
2018-Jul-12 14:30N 57°09' W 002°05'0 0.0
2018-Jul-12 14:00N 57°09' W 002°05'0 0.0
2018-Jul-12 13:30N 57°09' W 002°05'0 0.0
2018-Jul-12 13:00N 57°09' W 002°05'0 0.0
2018-Jul-12 12:30N 57°09' W 002°05'0 0.0
2018-Jul-12 12:00N 57°09' W 002°05'0 0.0
2018-Jul-12 11:28N 57°09' W 002°05'0 0.0
2018-Jul-12 11:00N 57°09' W 002°05'0 0.0
2018-Jul-12 10:30N 57°09' W 002°05'0 0.0
2018-Jul-12 10:00N 57°09' W 002°05'0 0.0
2018-Jul-12 09:30N 57°09' W 002°05'0 0.0
2018-Jul-12 09:00N 57°09' W 002°05'0 0.0
2018-Jul-12 08:30N 57°09' W 002°05'0 0.0
2018-Jul-12 08:00N 57°09' W 002°05'0 0.0
2018-Jul-12 07:30N 57°09' W 002°05'0 0.0
2018-Jul-12 07:00N 57°09' W 002°05'  

Dump ship's entire track history